sensor_id;sensor_type;location;lat;lon;timestamp;P1;durP1;ratioP1;P2;durP2;ratioP2
20772;SDS011;10546;50.674;4.616;2022-09-03T00:01:02;6.75;;;2.13;;
20772;SDS011;10546;50.674;4.616;2022-09-03T00:03:36;4.65;;;2.25;;
20772;SDS011;10546;50.674;4.616;2022-09-03T00:06:12;8.13;;;1.98;;
20772;SDS011;10546;50.674;4.616;2022-09-03T00:16:47;9.82;;;2.20;;
20772;SDS011;10546;50.674;4.616;2022-09-03T00:19:19;3.30;;;2.72;;
20772;SDS011;10546;50.674;4.616;2022-09-03T00:21:50;5.95;;;2.20;;
20772;SDS011;10546;50.674;4.616;2022-09-03T00:24:32;4.38;;;1.83;;
20772;SDS011;10546;50.674;4.616;2022-09-03T00:27:01;4.10;;;2.05;;
20772;SDS011;10546;50.674;4.616;2022-09-03T00:29:48;5.18;;;2.30;;
20772;SDS011;10546;50.674;4.616;2022-09-03T00:32:23;2.38;;;1.85;;
20772;SDS011;10546;50.674;4.616;2022-09-03T00:35:04;4.55;;;2.00;;
20772;SDS011;10546;50.674;4.616;2022-09-03T00:37:40;3.28;;;1.80;;
20772;SDS011;10546;50.674;4.616;2022-09-03T00:40:09;4.25;;;2.10;;
20772;SDS011;10546;50.674;4.616;2022-09-03T00:45:40;3.55;;;1.83;;
20772;SDS011;10546;50.674;4.616;2022-09-03T00:56:50;2.65;;;1.95;;
20772;SDS011;10546;50.674;4.616;2022-09-03T01:09:53;5.43;;;2.20;;
20772;SDS011;10546;50.674;4.616;2022-09-03T01:12:46;3.53;;;2.22;;
20772;SDS011;10546;50.674;4.616;2022-09-03T01:21:08;3.63;;;2.00;;
20772;SDS011;10546;50.674;4.616;2022-09-03T01:29:53;4.43;;;2.10;;
20772;SDS011;10546;50.674;4.616;2022-09-03T01:32:26;5.00;;;2.40;;
20772;SDS011;10546;50.674;4.616;2022-09-03T01:37:55;2.35;;;2.05;;
20772;SDS011;10546;50.674;4.616;2022-09-03T01:46:09;3.53;;;2.70;;
20772;SDS011;10546;50.674;4.616;2022-09-03T01:51:19;3.47;;;2.40;;
20772;SDS011;10546;50.674;4.616;2022-09-03T01:54:08;3.17;;;2.47;;
20772;SDS011;10546;50.674;4.616;2022-09-03T02:02:23;4.07;;;2.60;;
20772;SDS011;10546;50.674;4.616;2022-09-03T02:07:56;4.07;;;2.80;;
20772;SDS011;10546;50.674;4.616;2022-09-03T02:10:50;8.55;;;2.88;;
20772;SDS011;10546;50.674;4.616;2022-09-03T02:13:29;2.75;;;2.35;;
20772;SDS011;10546;50.674;4.616;2022-09-03T02:15:56;5.57;;;2.38;;
20772;SDS011;10546;50.674;4.616;2022-09-03T02:18:30;6.90;;;2.78;;
20772;SDS011;10546;50.674;4.616;2022-09-03T02:21:00;4.65;;;2.30;;
20772;SDS011;10546;50.674;4.616;2022-09-03T02:23:26;5.13;;;2.42;;
20772;SDS011;10546;50.674;4.616;2022-09-03T02:25:57;4.55;;;2.55;;
20772;SDS011;10546;50.674;4.616;2022-09-03T02:28:25;4.78;;;2.25;;
20772;SDS011;10546;50.674;4.616;2022-09-03T02:30:52;6.07;;;2.70;;
20772;SDS011;10546;50.674;4.616;2022-09-03T02:33:18;4.68;;;2.38;;
20772;SDS011;10546;50.674;4.616;2022-09-03T02:35:44;3.05;;;2.20;;
20772;SDS011;10546;50.674;4.616;2022-09-03T02:38:13;6.25;;;2.28;;
20772;SDS011;10546;50.674;4.616;2022-09-03T02:40:41;4.20;;;2.30;;
20772;SDS011;10546;50.674;4.616;2022-09-03T02:43:07;4.75;;;2.10;;
20772;SDS011;10546;50.674;4.616;2022-09-03T02:46:03;5.57;;;2.03;;
20772;SDS011;10546;50.674;4.616;2022-09-03T02:48:30;4.82;;;2.05;;
20772;SDS011;10546;50.674;4.616;2022-09-03T02:50:57;4.97;;;2.60;;
20772;SDS011;10546;50.674;4.616;2022-09-03T02:53:23;4.32;;;2.70;;
20772;SDS011;10546;50.674;4.616;2022-09-03T02:55:48;4.20;;;2.22;;
20772;SDS011;10546;50.674;4.616;2022-09-03T02:58:14;11.68;;;2.83;;
20772;SDS011;10546;50.674;4.616;2022-09-03T03:00:40;3.03;;;2.60;;
20772;SDS011;10546;50.674;4.616;2022-09-03T03:03:06;7.35;;;2.90;;
20772;SDS011;10546;50.674;4.616;2022-09-03T03:05:41;4.18;;;3.08;;
20772;SDS011;10546;50.674;4.616;2022-09-03T03:08:19;3.75;;;3.13;;
20772;SDS011;10546;50.674;4.616;2022-09-03T03:10:47;4.05;;;3.05;;
20772;SDS011;10546;50.674;4.616;2022-09-03T03:13:15;4.72;;;3.50;;
20772;SDS011;10546;50.674;4.616;2022-09-03T03:15:41;5.30;;;4.03;;
20772;SDS011;10546;50.674;4.616;2022-09-03T03:18:07;4.07;;;3.38;;
20772;SDS011;10546;50.674;4.616;2022-09-03T03:20:36;3.92;;;3.47;;
20772;SDS011;10546;50.674;4.616;2022-09-03T03:23:02;4.28;;;3.15;;
20772;SDS011;10546;50.674;4.616;2022-09-03T03:25:30;8.77;;;3.78;;
20772;SDS011;10546;50.674;4.616;2022-09-03T03:27:57;8.30;;;4.10;;
20772;SDS011;10546;50.674;4.616;2022-09-03T03:30:22;5.05;;;3.75;;
20772;SDS011;10546;50.674;4.616;2022-09-03T03:32:48;6.60;;;3.97;;
20772;SDS011;10546;50.674;4.616;2022-09-03T03:35:13;5.85;;;3.28;;
20772;SDS011;10546;50.674;4.616;2022-09-03T03:37:39;5.20;;;3.53;;
20772;SDS011;10546;50.674;4.616;2022-09-03T03:40:05;5.22;;;3.47;;
20772;SDS011;10546;50.674;4.616;2022-09-03T03:42:34;4.68;;;3.70;;
20772;SDS011;10546;50.674;4.616;2022-09-03T03:45:00;6.80;;;3.88;;
20772;SDS011;10546;50.674;4.616;2022-09-03T03:47:27;4.95;;;4.30;;
20772;SDS011;10546;50.674;4.616;2022-09-03T03:49:55;6.55;;;4.40;;
20772;SDS011;10546;50.674;4.616;2022-09-03T03:52:24;4.90;;;4.40;;
20772;SDS011;10546;50.674;4.616;2022-09-03T03:54:50;8.85;;;4.95;;
20772;SDS011;10546;50.674;4.616;2022-09-03T03:57:17;5.30;;;4.72;;
20772;SDS011;10546;50.674;4.616;2022-09-03T03:59:43;5.78;;;5.05;;
20772;SDS011;10546;50.674;4.616;2022-09-03T04:02:09;7.22;;;4.70;;
20772;SDS011;10546;50.674;4.616;2022-09-03T04:04:36;7.20;;;5.15;;
20772;SDS011;10546;50.674;4.616;2022-09-03T04:07:01;5.60;;;5.00;;
20772;SDS011;10546;50.674;4.616;2022-09-03T04:09:27;8.32;;;4.82;;
20772;SDS011;10546;50.674;4.616;2022-09-03T04:11:53;5.53;;;4.97;;
20772;SDS011;10546;50.674;4.616;2022-09-03T04:14:22;9.30;;;5.30;;
20772;SDS011;10546;50.674;4.616;2022-09-03T04:16:48;18.45;;;6.75;;
20772;SDS011;10546;50.674;4.616;2022-09-03T04:19:15;11.38;;;5.70;;
20772;SDS011;10546;50.674;4.616;2022-09-03T04:21:41;10.73;;;6.10;;
20772;SDS011;10546;50.674;4.616;2022-09-03T04:24:07;5.50;;;4.97;;
20772;SDS011;10546;50.674;4.616;2022-09-03T04:26:33;9.88;;;5.28;;
20772;SDS011;10546;50.674;4.616;2022-09-03T04:29:01;8.40;;;5.65;;
20772;SDS011;10546;50.674;4.616;2022-09-03T04:31:28;7.07;;;5.60;;
20772;SDS011;10546;50.674;4.616;2022-09-03T04:33:54;9.13;;;5.95;;
20772;SDS011;10546;50.674;4.616;2022-09-03T04:36:21;6.30;;;5.63;;
20772;SDS011;10546;50.674;4.616;2022-09-03T04:38:49;15.27;;;6.53;;
20772;SDS011;10546;50.674;4.616;2022-09-03T04:41:19;7.30;;;5.72;;
20772;SDS011;10546;50.674;4.616;2022-09-03T04:43:46;8.95;;;6.28;;
20772;SDS011;10546;50.674;4.616;2022-09-03T04:46:13;7.65;;;6.10;;
20772;SDS011;10546;50.674;4.616;2022-09-03T04:48:41;8.98;;;6.40;;
20772;SDS011;10546;50.674;4.616;2022-09-03T04:51:09;9.32;;;6.45;;
20772;SDS011;10546;50.674;4.616;2022-09-03T04:53:38;6.90;;;6.20;;
20772;SDS011;10546;50.674;4.616;2022-09-03T04:56:15;8.60;;;6.30;;
20772;SDS011;10546;50.674;4.616;2022-09-03T04:58:43;7.53;;;6.18;;
20772;SDS011;10546;50.674;4.616;2022-09-03T05:01:09;9.30;;;5.97;;
20772;SDS011;10546;50.674;4.616;2022-09-03T05:03:36;7.53;;;5.90;;
20772;SDS011;10546;50.674;4.616;2022-09-03T05:06:02;6.22;;;5.60;;
20772;SDS011;10546;50.674;4.616;2022-09-03T05:08:30;7.47;;;6.20;;
20772;SDS011;10546;50.674;4.616;2022-09-03T05:10:59;8.13;;;6.20;;
20772;SDS011;10546;50.674;4.616;2022-09-03T05:13:25;7.93;;;6.15;;
20772;SDS011;10546;50.674;4.616;2022-09-03T05:15:52;9.07;;;6.20;;
20772;SDS011;10546;50.674;4.616;2022-09-03T05:18:28;8.75;;;6.40;;
20772;SDS011;10546;50.674;4.616;2022-09-03T05:21:00;7.13;;;6.30;;
20772;SDS011;10546;50.674;4.616;2022-09-03T05:23:29;7.32;;;6.10;;
20772;SDS011;10546;50.674;4.616;2022-09-03T05:25:59;7.57;;;5.97;;
20772;SDS011;10546;50.674;4.616;2022-09-03T05:28:26;6.90;;;6.20;;
20772;SDS011;10546;50.674;4.616;2022-09-03T05:31:07;7.90;;;5.65;;
20772;SDS011;10546;50.674;4.616;2022-09-03T05:33:36;8.88;;;5.65;;
20772;SDS011;10546;50.674;4.616;2022-09-03T05:36:10;6.95;;;5.80;;
20772;SDS011;10546;50.674;4.616;2022-09-03T05:38:37;8.77;;;5.43;;
20772;SDS011;10546;50.674;4.616;2022-09-03T05:41:04;7.35;;;5.70;;
20772;SDS011;10546;50.674;4.616;2022-09-03T05:43:31;9.75;;;5.18;;
20772;SDS011;10546;50.674;4.616;2022-09-03T05:45:58;10.90;;;5.45;;
20772;SDS011;10546;50.674;4.616;2022-09-03T05:48:28;9.13;;;4.72;;
20772;SDS011;10546;50.674;4.616;2022-09-03T05:51:01;6.75;;;4.85;;
20772;SDS011;10546;50.674;4.616;2022-09-03T05:53:29;5.40;;;4.90;;
20772;SDS011;10546;50.674;4.616;2022-09-03T05:55:57;7.18;;;5.10;;
20772;SDS011;10546;50.674;4.616;2022-09-03T05:58:24;8.30;;;4.63;;
20772;SDS011;10546;50.674;4.616;2022-09-03T06:00:55;7.60;;;4.78;;
20772;SDS011;10546;50.674;4.616;2022-09-03T06:03:20;8.23;;;5.22;;
20772;SDS011;10546;50.674;4.616;2022-09-03T06:05:50;5.13;;;4.63;;
20772;SDS011;10546;50.674;4.616;2022-09-03T06:08:17;10.25;;;4.80;;
20772;SDS011;10546;50.674;4.616;2022-09-03T06:10:42;6.15;;;3.63;;
20772;SDS011;10546;50.674;4.616;2022-09-03T06:13:08;3.72;;;3.33;;
20772;SDS011;10546;50.674;4.616;2022-09-03T06:15:34;4.18;;;3.10;;
20772;SDS011;10546;50.674;4.616;2022-09-03T06:18:00;4.90;;;3.40;;
20772;SDS011;10546;50.674;4.616;2022-09-03T06:20:25;4.47;;;3.30;;
20772;SDS011;10546;50.674;4.616;2022-09-03T06:22:53;6.47;;;3.50;;
20772;SDS011;10546;50.674;4.616;2022-09-03T06:25:19;5.55;;;2.88;;
20772;SDS011;10546;50.674;4.616;2022-09-03T06:27:45;8.25;;;3.10;;
20772;SDS011;10546;50.674;4.616;2022-09-03T06:30:11;5.75;;;2.90;;
20772;SDS011;10546;50.674;4.616;2022-09-03T06:32:44;3.83;;;3.15;;
20772;SDS011;10546;50.674;4.616;2022-09-03T06:35:11;4.22;;;2.90;;
20772;SDS011;10546;50.674;4.616;2022-09-03T06:37:40;7.93;;;3.30;;
20772;SDS011;10546;50.674;4.616;2022-09-03T06:40:07;5.97;;;3.38;;
20772;SDS011;10546;50.674;4.616;2022-09-03T06:42:53;4.90;;;2.83;;
20772;SDS011;10546;50.674;4.616;2022-09-03T06:45:23;4.97;;;3.05;;
20772;SDS011;10546;50.674;4.616;2022-09-03T06:47:48;6.85;;;3.20;;
20772;SDS011;10546;50.674;4.616;2022-09-03T06:50:14;5.40;;;3.10;;
20772;SDS011;10546;50.674;4.616;2022-09-03T06:52:42;4.95;;;3.15;;
20772;SDS011;10546;50.674;4.616;2022-09-03T06:55:07;5.72;;;2.80;;
20772;SDS011;10546;50.674;4.616;2022-09-03T06:57:33;4.57;;;2.95;;
20772;SDS011;10546;50.674;4.616;2022-09-03T06:59:59;6.68;;;2.50;;
20772;SDS011;10546;50.674;4.616;2022-09-03T07:02:26;3.38;;;2.38;;
20772;SDS011;10546;50.674;4.616;2022-09-03T07:04:52;8.15;;;2.85;;
20772;SDS011;10546;50.674;4.616;2022-09-03T07:07:17;3.67;;;2.53;;
20772;SDS011;10546;50.674;4.616;2022-09-03T07:09:43;5.47;;;2.83;;
20772;SDS011;10546;50.674;4.616;2022-09-03T07:12:09;8.63;;;2.42;;
20772;SDS011;10546;50.674;4.616;2022-09-03T07:14:36;5.70;;;2.50;;
20772;SDS011;10546;50.674;4.616;2022-09-03T07:17:01;8.23;;;2.72;;
20772;SDS011;10546;50.674;4.616;2022-09-03T07:19:27;6.30;;;2.50;;
20772;SDS011;10546;50.674;4.616;2022-09-03T07:21:53;7.28;;;2.70;;
20772;SDS011;10546;50.674;4.616;2022-09-03T07:24:18;5.15;;;2.70;;
20772;SDS011;10546;50.674;4.616;2022-09-03T07:26:46;9.82;;;2.80;;
20772;SDS011;10546;50.674;4.616;2022-09-03T07:29:13;5.40;;;2.38;;
20772;SDS011;10546;50.674;4.616;2022-09-03T07:31:41;4.38;;;2.90;;
20772;SDS011;10546;50.674;4.616;2022-09-03T07:34:08;4.80;;;2.63;;
20772;SDS011;10546;50.674;4.616;2022-09-03T07:36:44;5.85;;;2.80;;
20772;SDS011;10546;50.674;4.616;2022-09-03T07:39:11;5.15;;;3.03;;
20772;SDS011;10546;50.674;4.616;2022-09-03T07:41:39;7.95;;;2.97;;
20772;SDS011;10546;50.674;4.616;2022-09-03T07:44:09;5.95;;;3.13;;
20772;SDS011;10546;50.674;4.616;2022-09-03T07:46:40;5.45;;;2.75;;
20772;SDS011;10546;50.674;4.616;2022-09-03T07:49:07;5.63;;;3.10;;
20772;SDS011;10546;50.674;4.616;2022-09-03T07:51:34;9.50;;;3.20;;
20772;SDS011;10546;50.674;4.616;2022-09-03T07:54:02;4.78;;;2.58;;
20772;SDS011;10546;50.674;4.616;2022-09-03T07:56:31;4.68;;;2.30;;
20772;SDS011;10546;50.674;4.616;2022-09-03T07:58:58;6.32;;;2.33;;
20772;SDS011;10546;50.674;4.616;2022-09-03T08:01:25;3.55;;;2.53;;
20772;SDS011;10546;50.674;4.616;2022-09-03T08:03:55;4.28;;;2.83;;
20772;SDS011;10546;50.674;4.616;2022-09-03T08:06:22;5.10;;;2.40;;
20772;SDS011;10546;50.674;4.616;2022-09-03T08:08:53;5.53;;;2.80;;
20772;SDS011;10546;50.674;4.616;2022-09-03T08:11:24;6.43;;;2.83;;
20772;SDS011;10546;50.674;4.616;2022-09-03T08:13:55;4.47;;;3.10;;
20772;SDS011;10546;50.674;4.616;2022-09-03T08:16:27;3.85;;;2.80;;
20772;SDS011;10546;50.674;4.616;2022-09-03T08:18:55;5.00;;;3.58;;
20772;SDS011;10546;50.674;4.616;2022-09-03T08:21:21;7.00;;;3.42;;
20772;SDS011;10546;50.674;4.616;2022-09-03T08:23:48;3.78;;;2.70;;
20772;SDS011;10546;50.674;4.616;2022-09-03T08:26:16;9.32;;;4.63;;
20772;SDS011;10546;50.674;4.616;2022-09-03T08:28:42;7.65;;;5.18;;
20772;SDS011;10546;50.674;4.616;2022-09-03T08:33:39;5.18;;;3.33;;
20772;SDS011;10546;50.674;4.616;2022-09-03T08:36:08;8.48;;;3.40;;
20772;SDS011;10546;50.674;4.616;2022-09-03T08:38:39;7.05;;;3.65;;
20772;SDS011;10546;50.674;4.616;2022-09-03T08:41:18;6.07;;;3.15;;
20772;SDS011;10546;50.674;4.616;2022-09-03T08:46:19;8.48;;;3.75;;
20772;SDS011;10546;50.674;4.616;2022-09-03T08:48:50;6.80;;;3.95;;
20772;SDS011;10546;50.674;4.616;2022-09-03T08:51:17;6.43;;;3.92;;
20772;SDS011;10546;50.674;4.616;2022-09-03T08:53:51;7.82;;;4.10;;
20772;SDS011;10546;50.674;4.616;2022-09-03T08:56:24;6.20;;;3.58;;
20772;SDS011;10546;50.674;4.616;2022-09-03T08:58:54;5.90;;;3.78;;
20772;SDS011;10546;50.674;4.616;2022-09-03T09:06:58;6.53;;;3.67;;
20772;SDS011;10546;50.674;4.616;2022-09-03T09:15:22;5.05;;;3.70;;
20772;SDS011;10546;50.674;4.616;2022-09-03T09:20:36;6.22;;;4.10;;
20772;SDS011;10546;50.674;4.616;2022-09-03T09:23:06;5.95;;;3.45;;
20772;SDS011;10546;50.674;4.616;2022-09-03T09:25:38;4.53;;;3.38;;
20772;SDS011;10546;50.674;4.616;2022-09-03T09:28:13;6.05;;;3.58;;
20772;SDS011;10546;50.674;4.616;2022-09-03T09:30:43;5.22;;;3.38;;
20772;SDS011;10546;50.674;4.616;2022-09-03T09:33:11;4.25;;;3.50;;
20772;SDS011;10546;50.674;4.616;2022-09-03T09:35:37;4.35;;;3.40;;
20772;SDS011;10546;50.674;4.616;2022-09-03T09:38:06;3.78;;;3.10;;
20772;SDS011;10546;50.674;4.616;2022-09-03T09:43:11;4.63;;;3.60;;
20772;SDS011;10546;50.674;4.616;2022-09-03T09:45:42;6.10;;;4.05;;
20772;SDS011;10546;50.674;4.616;2022-09-03T09:48:15;7.60;;;4.03;;
20772;SDS011;10546;50.674;4.616;2022-09-03T09:50:42;6.10;;;3.55;;
20772;SDS011;10546;50.674;4.616;2022-09-03T09:53:09;6.38;;;3.97;;
20772;SDS011;10546;50.674;4.616;2022-09-03T09:55:52;7.68;;;3.90;;
20772;SDS011;10546;50.674;4.616;2022-09-03T09:58:20;4.65;;;4.00;;
20772;SDS011;10546;50.674;4.616;2022-09-03T10:03:32;4.97;;;3.30;;
20772;SDS011;10546;50.674;4.616;2022-09-03T10:06:02;5.75;;;3.83;;
20772;SDS011;10546;50.674;4.616;2022-09-03T10:08:52;4.38;;;3.53;;
20772;SDS011;10546;50.674;4.616;2022-09-03T10:11:30;5.05;;;3.97;;
20772;SDS011;10546;50.674;4.616;2022-09-03T10:13:57;5.03;;;4.13;;
20772;SDS011;10546;50.674;4.616;2022-09-03T10:16:28;11.93;;;4.68;;
20772;SDS011;10546;50.674;4.616;2022-09-03T10:19:19;5.55;;;4.25;;
20772;SDS011;10546;50.674;4.616;2022-09-03T10:22:00;9.52;;;4.47;;
20772;SDS011;10546;50.674;4.616;2022-09-03T10:27:04;9.68;;;4.10;;
20772;SDS011;10546;50.674;4.616;2022-09-03T10:29:34;8.38;;;4.35;;
20772;SDS011;10546;50.674;4.616;2022-09-03T10:51:15;7.13;;;4.38;;
20772;SDS011;10546;50.674;4.616;2022-09-03T11:05:44;5.63;;;4.00;;
20772;SDS011;10546;50.674;4.616;2022-09-03T11:09:11;8.63;;;4.60;;
20772;SDS011;10546;50.674;4.616;2022-09-03T11:12:00;6.03;;;3.88;;
20772;SDS011;10546;50.674;4.616;2022-09-03T11:14:43;6.93;;;4.78;;
20772;SDS011;10546;50.674;4.616;2022-09-03T11:17:12;6.38;;;4.80;;
20772;SDS011;10546;50.674;4.616;2022-09-03T11:19:45;6.93;;;4.30;;
20772;SDS011;10546;50.674;4.616;2022-09-03T11:22:15;7.50;;;5.00;;
20772;SDS011;10546;50.674;4.616;2022-09-03T11:24:43;8.40;;;4.93;;
20772;SDS011;10546;50.674;4.616;2022-09-03T11:27:30;6.35;;;4.55;;
20772;SDS011;10546;50.674;4.616;2022-09-03T11:30:13;7.85;;;4.63;;
20772;SDS011;10546;50.674;4.616;2022-09-03T11:32:52;6.00;;;4.10;;
20772;SDS011;10546;50.674;4.616;2022-09-03T11:38:05;6.72;;;4.05;;
20772;SDS011;10546;50.674;4.616;2022-09-03T11:45:48;7.68;;;4.97;;
20772;SDS011;10546;50.674;4.616;2022-09-03T11:48:45;5.47;;;4.30;;
20772;SDS011;10546;50.674;4.616;2022-09-03T11:51:19;8.02;;;4.50;;
20772;SDS011;10546;50.674;4.616;2022-09-03T11:54:02;7.25;;;4.38;;
20772;SDS011;10546;50.674;4.616;2022-09-03T11:56:30;8.02;;;4.30;;
20772;SDS011;10546;50.674;4.616;2022-09-03T12:01:38;9.57;;;4.53;;
20772;SDS011;10546;50.674;4.616;2022-09-03T12:04:17;4.45;;;3.97;;
20772;SDS011;10546;50.674;4.616;2022-09-03T12:09:34;7.57;;;4.30;;
20772;SDS011;10546;50.674;4.616;2022-09-03T12:15:04;9.43;;;3.80;;
20772;SDS011;10546;50.674;4.616;2022-09-03T12:20:34;4.00;;;3.40;;
20772;SDS011;10546;50.674;4.616;2022-09-03T12:23:00;5.25;;;3.35;;
20772;SDS011;10546;50.674;4.616;2022-09-03T12:25:27;4.93;;;3.33;;
20772;SDS011;10546;50.674;4.616;2022-09-03T12:27:53;3.90;;;3.50;;
20772;SDS011;10546;50.674;4.616;2022-09-03T12:30:21;5.50;;;3.80;;
20772;SDS011;10546;50.674;4.616;2022-09-03T12:32:48;7.57;;;4.68;;
20772;SDS011;10546;50.674;4.616;2022-09-03T12:35:19;11.48;;;4.75;;
20772;SDS011;10546;50.674;4.616;2022-09-03T12:37:46;7.38;;;4.75;;
20772;SDS011;10546;50.674;4.616;2022-09-03T12:40:17;6.93;;;4.10;;
20772;SDS011;10546;50.674;4.616;2022-09-03T12:42:43;6.78;;;4.13;;
20772;SDS011;10546;50.674;4.616;2022-09-03T12:45:09;4.50;;;3.55;;
20772;SDS011;10546;50.674;4.616;2022-09-03T12:47:39;6.53;;;3.97;;
20772;SDS011;10546;50.674;4.616;2022-09-03T12:50:07;6.15;;;3.60;;
20772;SDS011;10546;50.674;4.616;2022-09-03T12:52:35;5.15;;;3.65;;
20772;SDS011;10546;50.674;4.616;2022-09-03T12:58:04;4.57;;;3.72;;
20772;SDS011;10546;50.674;4.616;2022-09-03T13:00:34;5.22;;;3.80;;
20772;SDS011;10546;50.674;4.616;2022-09-03T13:03:07;3.83;;;3.17;;
20772;SDS011;10546;50.674;4.616;2022-09-03T13:05:48;5.60;;;3.20;;
20772;SDS011;10546;50.674;4.616;2022-09-03T13:08:28;4.47;;;3.38;;
20772;SDS011;10546;50.674;4.616;2022-09-03T13:10:57;5.60;;;3.30;;
20772;SDS011;10546;50.674;4.616;2022-09-03T13:13:27;4.50;;;3.28;;
20772;SDS011;10546;50.674;4.616;2022-09-03T13:21:39;10.60;;;3.25;;
20772;SDS011;10546;50.674;4.616;2022-09-03T13:32:37;7.28;;;3.65;;
20772;SDS011;10546;50.674;4.616;2022-09-03T13:35:15;6.25;;;3.50;;
20772;SDS011;10546;50.674;4.616;2022-09-03T13:38:05;6.00;;;3.47;;
20772;SDS011;10546;50.674;4.616;2022-09-03T13:40:44;8.43;;;3.70;;
20772;SDS011;10546;50.674;4.616;2022-09-03T13:46:19;7.85;;;3.30;;
20772;SDS011;10546;50.674;4.616;2022-09-03T13:48:55;3.88;;;3.15;;
20772;SDS011;10546;50.674;4.616;2022-09-03T13:51:46;7.18;;;3.33;;
20772;SDS011;10546;50.674;4.616;2022-09-03T13:54:29;4.47;;;2.75;;
20772;SDS011;10546;50.674;4.616;2022-09-03T13:59:51;5.00;;;3.38;;
20772;SDS011;10546;50.674;4.616;2022-09-03T14:02:25;7.68;;;3.55;;
20772;SDS011;10546;50.674;4.616;2022-09-03T14:07:46;4.78;;;3.22;;
20772;SDS011;10546;50.674;4.616;2022-09-03T14:10:38;5.43;;;3.20;;
20772;SDS011;10546;50.674;4.616;2022-09-03T14:13:21;4.90;;;3.33;;
20772;SDS011;10546;50.674;4.616;2022-09-03T14:21:26;4.40;;;3.10;;
20772;SDS011;10546;50.674;4.616;2022-09-03T14:26:47;7.38;;;3.13;;
20772;SDS011;10546;50.674;4.616;2022-09-03T14:29:16;4.32;;;3.15;;
20772;SDS011;10546;50.674;4.616;2022-09-03T14:39:52;9.02;;;3.13;;
20772;SDS011;10546;50.674;4.616;2022-09-03T14:45:17;12.25;;;3.92;;
20772;SDS011;10546;50.674;4.616;2022-09-03T14:51:09;18.63;;;6.15;;
20772;SDS011;10546;50.674;4.616;2022-09-03T15:05:13;9.63;;;3.78;;
20772;SDS011;10546;50.674;4.616;2022-09-03T15:08:11;11.45;;;5.40;;
20772;SDS011;10546;50.674;4.616;2022-09-03T15:11:17;10.50;;;5.38;;
20772;SDS011;10546;50.674;4.616;2022-09-03T15:22:01;11.07;;;5.13;;
20772;SDS011;10546;50.674;4.616;2022-09-03T15:30:09;7.07;;;4.13;;
20772;SDS011;10546;50.674;4.616;2022-09-03T15:33:19;11.15;;;2.33;;
20772;SDS011;10546;50.674;4.616;2022-09-03T15:41:02;3.25;;;1.02;;
20772;SDS011;10546;50.674;4.616;2022-09-03T15:43:33;2.08;;;1.10;;
20772;SDS011;10546;50.674;4.616;2022-09-03T15:45:59;2.45;;;1.17;;
20772;SDS011;10546;50.674;4.616;2022-09-03T15:48:33;3.85;;;1.73;;
20772;SDS011;10546;50.674;4.616;2022-09-03T15:53:56;3.90;;;1.13;;
20772;SDS011;10546;50.674;4.616;2022-09-03T15:56:49;3.63;;;1.60;;
20772;SDS011;10546;50.674;4.616;2022-09-03T15:59:52;3.95;;;1.60;;
20772;SDS011;10546;50.674;4.616;2022-09-03T16:05:57;1.98;;;1.60;;
20772;SDS011;10546;50.674;4.616;2022-09-03T16:20:00;2.15;;;1.50;;
20772;SDS011;10546;50.674;4.616;2022-09-03T16:25:33;2.03;;;1.35;;
20772;SDS011;10546;50.674;4.616;2022-09-03T16:28:29;4.25;;;1.30;;
20772;SDS011;10546;50.674;4.616;2022-09-03T16:45:01;1.30;;;1.20;;
20772;SDS011;10546;50.674;4.616;2022-09-03T16:50:22;2.67;;;1.10;;
20772;SDS011;10546;50.674;4.616;2022-09-03T17:21:13;3.80;;;2.40;;
20772;SDS011;10546;50.674;4.616;2022-09-03T17:24:22;4.28;;;2.28;;
20772;SDS011;10546;50.674;4.616;2022-09-03T17:29:54;5.40;;;2.50;;
20772;SDS011;10546;50.674;4.616;2022-09-03T17:32:52;3.47;;;2.38;;
20772;SDS011;10546;50.674;4.616;2022-09-03T17:39:16;7.38;;;2.42;;
20772;SDS011;10546;50.674;4.616;2022-09-03T17:42:03;7.47;;;2.78;;
20772;SDS011;10546;50.674;4.616;2022-09-03T17:45:13;11.45;;;2.60;;
20772;SDS011;10546;50.674;4.616;2022-09-03T17:50:44;6.32;;;4.50;;
20772;SDS011;10546;50.674;4.616;2022-09-03T17:53:55;5.18;;;3.30;;
20772;SDS011;10546;50.674;4.616;2022-09-03T17:57:04;5.90;;;4.35;;
20772;SDS011;10546;50.674;4.616;2022-09-03T18:02:29;7.47;;;3.97;;
20772;SDS011;10546;50.674;4.616;2022-09-03T18:07:45;7.10;;;4.00;;
20772;SDS011;10546;50.674;4.616;2022-09-03T18:13:38;5.97;;;4.13;;
20772;SDS011;10546;50.674;4.616;2022-09-03T18:17:12;7.15;;;4.15;;
20772;SDS011;10546;50.674;4.616;2022-09-03T18:20:10;7.40;;;4.72;;
20772;SDS011;10546;50.674;4.616;2022-09-03T18:23:20;9.57;;;7.57;;
20772;SDS011;10546;50.674;4.616;2022-09-03T18:26:35;14.57;;;8.15;;
20772;SDS011;10546;50.674;4.616;2022-09-03T18:29:36;5.30;;;3.95;;
20772;SDS011;10546;50.674;4.616;2022-09-03T18:32:46;8.25;;;4.43;;
20772;SDS011;10546;50.674;4.616;2022-09-03T18:35:30;5.85;;;4.30;;
20772;SDS011;10546;50.674;4.616;2022-09-03T18:38:23;4.78;;;3.60;;
20772;SDS011;10546;50.674;4.616;2022-09-03T18:48:09;6.53;;;4.30;;
20772;SDS011;10546;50.674;4.616;2022-09-03T18:57:38;4.07;;;3.50;;
20772;SDS011;10546;50.674;4.616;2022-09-03T19:07:19;8.63;;;4.20;;
20772;SDS011;10546;50.674;4.616;2022-09-03T19:13:56;5.20;;;4.07;;
20772;SDS011;10546;50.674;4.616;2022-09-03T19:20:26;4.88;;;3.90;;
20772;SDS011;10546;50.674;4.616;2022-09-03T19:23:22;4.45;;;3.40;;
20772;SDS011;10546;50.674;4.616;2022-09-03T19:26:14;7.15;;;3.50;;
20772;SDS011;10546;50.674;4.616;2022-09-03T19:29:33;6.50;;;3.60;;
20772;SDS011;10546;50.674;4.616;2022-09-03T19:32:42;4.53;;;3.28;;
20772;SDS011;10546;50.674;4.616;2022-09-03T19:39:05;5.68;;;3.30;;
20772;SDS011;10546;50.674;4.616;2022-09-03T19:45:38;6.10;;;3.70;;
20772;SDS011;10546;50.674;4.616;2022-09-03T19:55:10;4.30;;;3.90;;
20772;SDS011;10546;50.674;4.616;2022-09-03T19:58:02;5.28;;;3.95;;
20772;SDS011;10546;50.674;4.616;2022-09-03T20:00:46;4.30;;;3.75;;
20772;SDS011;10546;50.674;4.616;2022-09-03T20:03:32;6.20;;;4.18;;
20772;SDS011;10546;50.674;4.616;2022-09-03T20:06:17;4.68;;;4.07;;
20772;SDS011;10546;50.674;4.616;2022-09-03T20:09:11;6.53;;;4.30;;
20772;SDS011;10546;50.674;4.616;2022-09-03T20:12:17;6.50;;;4.45;;
20772;SDS011;10546;50.674;4.616;2022-09-03T20:15:24;8.77;;;4.50;;
20772;SDS011;10546;50.674;4.616;2022-09-03T20:23:19;8.05;;;5.65;;
20772;SDS011;10546;50.674;4.616;2022-09-03T20:32:12;7.35;;;5.38;;
20772;SDS011;10546;50.674;4.616;2022-09-03T20:40:57;8.65;;;4.82;;
20772;SDS011;10546;50.674;4.616;2022-09-03T20:49:30;6.38;;;5.00;;
20772;SDS011;10546;50.674;4.616;2022-09-03T20:55:48;5.95;;;4.68;;
20772;SDS011;10546;50.674;4.616;2022-09-03T21:04:14;8.75;;;5.30;;
20772;SDS011;10546;50.674;4.616;2022-09-03T21:15:06;7.07;;;5.18;;
20772;SDS011;10546;50.674;4.616;2022-09-03T21:23:47;7.70;;;5.00;;
20772;SDS011;10546;50.674;4.616;2022-09-03T21:26:33;7.68;;;5.03;;
20772;SDS011;10546;50.674;4.616;2022-09-03T21:35:24;9.60;;;5.82;;
20772;SDS011;10546;50.674;4.616;2022-09-03T21:38:18;6.75;;;5.40;;
20772;SDS011;10546;50.674;4.616;2022-09-03T21:41:09;7.88;;;5.20;;
20772;SDS011;10546;50.674;4.616;2022-09-03T21:49:44;8.27;;;5.38;;
20772;SDS011;10546;50.674;4.616;2022-09-03T21:52:41;8.07;;;5.45;;
20772;SDS011;10546;50.674;4.616;2022-09-03T22:01:07;7.53;;;5.05;;
20772;SDS011;10546;50.674;4.616;2022-09-03T22:03:58;7.78;;;5.47;;
20772;SDS011;10546;50.674;4.616;2022-09-03T22:06:30;8.88;;;4.80;;
20772;SDS011;10546;50.674;4.616;2022-09-03T22:09:52;6.22;;;4.57;;
20772;SDS011;10546;50.674;4.616;2022-09-03T22:16:21;7.03;;;4.70;;
20772;SDS011;10546;50.674;4.616;2022-09-03T22:19:12;9.70;;;5.20;;
20772;SDS011;10546;50.674;4.616;2022-09-03T22:30:04;5.70;;;4.68;;
20772;SDS011;10546;50.674;4.616;2022-09-03T22:32:59;5.75;;;4.63;;
20772;SDS011;10546;50.674;4.616;2022-09-03T22:36:08;5.57;;;4.45;;